Time;durP1;ratioP1;P1;durP2;ratioP2;P2;SDS_P1;SDS_P2;PMS_P1;PMS_P2;Temp;Humidity;BMP_temperature;BMP_pressure;BME280_temperature;BME280_humidity;BME280_pressure;Samples;Min_cycle;Max_cycle;Signal;HPM_P1;HPM_P2
2021/04/09 00:01:28;;;;;;;25.20;7.10;;;;;;;5.89;89.78;99815.41;5091539;28;20036;-73
2021/04/09 00:03:59;;;;;;;21.63;7.95;;;;;;;5.89;90.05;99839.75;5089670;28;20024;-74
2021/04/09 00:06:25;;;;;;;25.27;6.40;;;;;;;5.90;89.97;99803.53;5069121;28;20024;-74
2021/04/09 00:08:50;;;;;;;25.92;8.30;;;;;;;5.92;90.03;99817.59;5085005;28;20035;-74
2021/04/09 00:11:16;;;;;;;33.58;8.23;;;;;;;5.92;89.79;99804.91;5085934;28;20473;-74
2021/04/09 00:13:41;;;;;;;25.00;6.57;;;;;;;5.93;89.73;99786.78;5086685;28;20028;-74
2021/04/09 00:16:07;;;;;;;23.42;7.97;;;;;;;5.94;89.98;99783.00;5084999;28;20032;-74
2021/04/09 00:18:32;;;;;;;25.73;8.75;;;;;;;5.97;89.96;99785.16;5088812;28;20050;-74
2021/04/09 00:20:58;;;;;;;30.10;9.13;;;;;;;6.00;89.80;99787.34;5090870;28;20020;-74
2021/04/09 00:23:23;;;;;;;26.63;7.78;;;;;;;6.01;89.87;99756.53;5069692;28;20082;-75
2021/04/09 00:25:48;;;;;;;22.30;7.40;;;;;;;6.03;89.70;99756.22;5090497;28;20027;-74
2021/04/09 00:28:14;;;;;;;20.95;9.52;;;;;;;6.02;89.63;99763.53;5070004;28;20027;-74
2021/04/09 00:30:39;;;;;;;28.38;9.35;;;;;;;6.04;89.63;99783.03;5090274;28;20027;-74
2021/04/09 00:33:05;;;;;;;27.33;6.00;;;;;;;6.05;89.51;99763.00;5090600;28;20016;-75
2021/04/09 00:35:31;;;;;;;37.38;10.15;;;;;;;6.07;89.35;99744.63;5086662;28;20036;-75
2021/04/09 00:37:57;;;;;;;35.47;8.75;;;;;;;6.10;89.18;99749.47;5083912;28;20026;-75
2021/04/09 00:40:23;;;;;;;27.27;7.45;;;;;;;6.12;88.97;99736.50;5086977;28;20032;-75
2021/04/09 00:42:48;;;;;;;33.33;9.60;;;;;;;6.13;88.94;99721.88;5090068;28;20057;-75
2021/04/09 00:45:14;;;;;;;24.85;9.05;;;;;;;6.14;88.73;99722.72;5088560;28;20040;-74
2021/04/09 00:47:41;;;;;;;18.65;7.20;;;;;;;6.16;88.54;99731.34;5072083;28;20111;-75
2021/04/09 00:50:07;;;;;;;29.90;7.38;;;;;;;6.15;88.36;99722.44;5086631;28;20024;-75
2021/04/09 00:52:33;;;;;;;22.38;6.93;;;;;;;6.17;88.14;99717.56;5068647;28;20034;-75
2021/04/09 00:54:58;;;;;;;26.27;6.90;;;;;;;6.20;87.92;99711.59;5069987;28;20021;-75
2021/04/09 00:57:24;;;;;;;24.50;7.18;;;;;;;6.22;87.70;99706.75;5086207;28;20085;-74
2021/04/09 00:59:49;;;;;;;23.30;7.72;;;;;;;6.24;87.28;99776.81;5088293;28;20086;-74
2021/04/09 01:02:16;;;;;;;39.17;8.38;;;;;;;6.25;87.23;99699.13;5067360;28;20478;-74
2021/04/09 01:04:41;;;;;;;32.03;9.07;;;;;;;6.26;87.17;99703.50;5083717;28;20025;-75
2021/04/09 01:07:07;;;;;;;24.95;6.68;;;;;;;6.24;86.95;99706.47;5083924;28;20510;-75
2021/04/09 01:09:34;;;;;;;20.95;5.30;;;;;;;6.26;86.67;99695.38;5088316;28;20031;-75
2021/04/09 01:12:00;;;;;;;42.17;9.82;;;;;;;6.24;86.69;99676.69;5086689;28;20028;-75
2021/04/09 01:14:25;;;;;;;32.17;8.45;;;;;;;6.21;86.90;99680.75;5090412;28;20027;-75
2021/04/09 01:16:58;;;;;;;26.77;8.13;;;;;;;6.21;86.70;99685.34;5085644;28;20016;-75
2021/04/09 01:19:33;;;;;;;21.50;8.02;;;;;;;6.21;86.66;99680.75;5090866;28;20115;-75
2021/04/09 01:22:01;;;;;;;24.75;7.72;;;;;;;6.21;86.81;99661.81;5089010;28;20036;-76
2021/04/09 01:25:03;;;;;;;35.42;9.23;;;;;;;6.21;86.53;99648.28;5068775;28;20101;-77
2021/04/09 01:27:47;;;;;;;22.95;7.72;;;;;;;6.19;86.43;99655.88;5083728;28;20026;-75
2021/04/09 01:30:42;;;;;;;39.05;8.70;;;;;;;6.20;86.33;99646.66;5084695;28;20035;-76
2021/04/09 01:33:07;;;;;;;32.15;8.20;;;;;;;6.19;86.09;99657.75;5087563;28;20361;-76
2021/04/09 01:35:34;;;;;;;35.88;9.48;;;;;;;6.18;86.11;99650.72;5071933;28;20031;-77
2021/04/09 01:38:04;;;;;;;31.30;9.35;;;;;;;6.16;86.35;99629.34;5071309;28;20023;-76
2021/04/09 01:40:32;;;;;;;37.17;9.27;;;;;;;6.15;86.20;99646.66;5084591;28;20025;-75
2021/04/09 01:42:59;;;;;;;25.30;7.80;;;;;;;6.14;86.40;99609.88;5068907;28;20020;-75
2021/04/09 01:45:24;;;;;;;36.95;10.85;;;;;;;6.12;86.49;99633.69;5088755;28;20072;-76
2021/04/09 01:47:51;;;;;;;24.65;7.63;;;;;;;6.12;86.51;99641.78;5054811;28;20137;-75
2021/04/09 01:50:17;;;;;;;34.97;8.18;;;;;;;6.11;86.51;99615.84;5069546;28;20043;-75
2021/04/09 01:52:43;;;;;;;39.63;9.20;;;;;;;6.10;86.58;99627.72;5068204;28;20024;-75
2021/04/09 01:55:09;;;;;;;29.77;8.25;;;;;;;6.09;86.46;99606.38;5068806;28;20102;-74
2021/04/09 01:57:34;;;;;;;26.25;7.30;;;;;;;6.07;86.53;99639.09;5070180;28;20417;-74
2021/04/09 02:00:00;;;;;;;38.50;9.20;;;;;;;6.05;86.58;99611.50;5068580;28;20086;-74
2021/04/09 02:02:25;;;;;;;20.75;6.90;;;;;;;6.03;86.53;99602.88;5083226;28;20116;-74
2021/04/09 02:04:51;;;;;;;26.58;8.00;;;;;;;6.03;86.82;99585.78;5068539;28;20028;-73
2021/04/09 02:07:17;;;;;;;23.83;7.35;;;;;;;6.01;86.81;99583.38;5087271;28;20451;-73
2021/04/09 02:09:43;;;;;;;24.95;7.18;;;;;;;6.03;86.83;99580.38;5084214;28;20469;-74
2021/04/09 02:12:10;;;;;;;25.70;6.90;;;;;;;6.02;86.88;99585.00;5071586;28;20032;-74
2021/04/09 02:14:35;;;;;;;36.90;8.95;;;;;;;6.00;86.96;99560.94;5083495;28;20066;-74
2021/04/09 02:17:01;;;;;;;25.45;7.70;;;;;;;6.00;87.03;99547.41;5087935;28;20023;-73
2021/04/09 02:19:26;;;;;;;33.35;8.15;;;;;;;6.00;86.96;99554.69;5086399;28;20097;-74
2021/04/09 02:21:52;;;;;;;25.27;7.85;;;;;;;5.98;87.23;99557.69;5088603;28;20476;-76
2021/04/09 02:24:17;;;;;;;31.08;8.38;;;;;;;5.99;87.24;99558.50;5071795;28;20129;-73
2021/04/09 02:26:43;;;;;;;26.38;7.25;;;;;;;6.00;87.11;99535.75;5069198;28;20042;-74
2021/04/09 02:29:08;;;;;;;31.23;6.22;;;;;;;6.00;87.59;99566.34;5089107;28;20027;-75
2021/04/09 02:31:34;;;;;;;39.33;8.77;;;;;;;6.01;87.31;99545.50;5089970;28;20020;-74
2021/04/09 02:33:59;;;;;;;26.98;7.38;;;;;;;6.03;87.31;99554.16;5088865;28;20028;-74
2021/04/09 02:36:26;;;;;;;19.70;7.07;;;;;;;6.01;87.49;99540.09;5087094;28;20032;-73
2021/04/09 02:38:53;;;;;;;30.52;8.00;;;;;;;5.97;87.64;99528.19;5070654;28;20550;-73
2021/04/09 02:41:19;;;;;;;24.63;7.20;;;;;;;5.91;87.88;99543.59;5083577;28;20035;-74
2021/04/09 02:43:45;;;;;;;34.75;7.30;;;;;;;5.91;88.03;99508.44;5064581;28;20389;-73
2021/04/09 02:46:20;;;;;;;36.78;7.20;;;;;;;5.91;87.97;99494.91;5083002;28;20048;-74
2021/04/09 02:48:51;;;;;;;28.15;8.05;;;;;;;5.92;88.15;99488.44;5084435;28;20491;-73
2021/04/09 02:51:18;;;;;;;22.88;6.82;;;;;;;5.93;88.15;99548.72;5061628;28;20028;-74
2021/04/09 02:53:43;;;;;;;30.50;7.50;;;;;;;5.93;88.33;99510.88;5067433;28;20024;-74
2021/04/09 02:56:11;;;;;;;26.83;6.57;;;;;;;5.94;88.43;99490.88;5068880;28;20734;-73
2021/04/09 02:58:37;;;;;;;20.33;6.25;;;;;;;5.91;88.35;99492.19;5072016;28;20092;-75
2021/04/09 03:01:02;;;;;;;29.98;7.50;;;;;;;5.88;88.54;99500.88;5070602;28;20028;-74
2021/04/09 03:03:27;;;;;;;38.30;7.03;;;;;;;5.86;88.99;99502.22;5084391;28;20738;-73
2021/04/09 03:05:53;;;;;;;27.67;7.07;;;;;;;5.84;89.22;99471.94;5065914;28;20028;-74
2021/04/09 03:08:20;;;;;;;26.55;7.43;;;;;;;5.83;89.28;99484.66;5084267;28;20461;-73
2021/04/09 03:10:45;;;;;;;29.58;7.20;;;;;;;5.84;89.54;99490.84;5085929;28;20469;-74
2021/04/09 03:13:11;;;;;;;27.15;6.68;;;;;;;5.86;89.47;99478.69;5085516;28;20020;-74
2021/04/09 03:15:43;;;;;;;34.50;7.50;;;;;;;5.86;89.76;99450.84;5086165;28;20032;-74
2021/04/09 03:18:12;;;;;;;20.73;5.95;;;;;;;5.84;89.76;99494.41;5087040;28;20024;-74
2021/04/09 03:20:39;;;;;;;28.77;6.18;;;;;;;5.82;89.88;99460.59;5085535;28;20059;-73
2021/04/09 03:23:04;;;;;;;28.92;6.63;;;;;;;5.78;90.34;99469.25;5072025;28;20291;-75
2021/04/09 03:25:31;;;;;;;38.13;7.93;;;;;;;5.78;90.25;99439.50;5078587;28;20042;-73
2021/04/09 03:27:56;;;;;;;33.58;7.32;;;;;;;5.77;90.50;99491.16;5086294;28;20020;-74
2021/04/09 03:30:22;;;;;;;28.98;6.40;;;;;;;5.76;90.42;99444.38;5085222;28;20105;-74
2021/04/09 03:32:48;;;;;;;53.78;8.80;;;;;;;5.76;90.53;99438.16;5068937;28;20127;-74
2021/04/09 03:35:14;;;;;;;23.98;6.53;;;;;;;5.76;90.75;99436.28;5089106;28;20019;-74
2021/04/09 03:37:39;;;;;;;28.52;8.30;;;;;;;5.75;90.85;99437.34;5085167;28;20085;-75
2021/04/09 03:40:05;;;;;;;43.40;8.00;;;;;;;5.75;90.78;99440.03;5092411;28;20028;-73
2021/04/09 03:42:30;;;;;;;26.83;6.70;;;;;;;5.74;90.99;99435.72;5091557;28;20077;-74
2021/04/09 03:44:56;;;;;;;25.08;6.45;;;;;;;5.72;90.91;99450.59;5091022;28;20040;-74
2021/04/09 03:47:21;;;;;;;35.78;7.13;;;;;;;5.70;91.39;99428.44;5091260;28;20050;-74
2021/04/09 03:49:46;;;;;;;35.50;6.95;;;;;;;5.70;91.03;99444.66;5083652;28;20023;-75
2021/04/09 03:52:12;;;;;;;41.60;11.07;;;;;;;5.69;91.38;99484.41;5089684;28;20427;-74
2021/04/09 03:54:37;;;;;;;16.33;2.35;;;;;;;5.37;90.44;99494.72;5090136;28;20028;-74
2021/04/09 03:57:03;;;;;;;30.60;3.80;;;;;;;4.80;90.01;99467.69;5090356;28;20358;-75
2021/04/09 03:59:28;;;;;;;18.60;2.53;;;;;;;4.48;89.77;99470.59;5090971;28;20024;-74
2021/04/09 04:01:54;;;;;;;24.00;2.53;;;;;;;4.26;90.01;99473.50;5091058;28;20028;-74
2021/04/09 04:04:19;;;;;;;23.38;4.15;;;;;;;4.17;90.20;99464.28;5090099;28;20029;-73
2021/04/09 04:06:45;;;;;;;22.38;3.13;;;;;;;4.18;90.24;99458.63;5088091;28;20069;-74
2021/04/09 04:09:10;;;;;;;16.15;1.70;;;;;;;4.24;90.47;99472.94;5086768;28;20039;-74
2021/04/09 04:11:35;;;;;;;10.18;1.52;;;;;;;4.25;90.41;99477.25;5087336;28;20020;-74
2021/04/09 04:14:02;;;;;;;7.43;1.17;;;;;;;4.21;89.95;99459.97;5089657;28;20027;-74
2021/04/09 04:16:28;;;;;;;9.98;1.63;;;;;;;4.19;90.22;99440.53;5090792;28;20024;-73
2021/04/09 04:18:53;;;;;;;5.13;1.35;;;;;;;4.18;90.11;99455.13;5091063;28;20024;-74
2021/04/09 04:21:19;;;;;;;8.60;1.42;;;;;;;4.19;89.90;99467.53;5082948;28;20552;-74
2021/04/09 04:23:45;;;;;;;7.57;1.60;;;;;;;4.21;90.08;99460.78;5089439;28;20103;-73
2021/04/09 04:26:10;;;;;;;9.23;1.23;;;;;;;4.22;90.55;99467.78;5084930;28;20111;-74
2021/04/09 04:28:36;;;;;;;10.73;1.95;;;;;;;4.22;90.33;99510.94;5091316;28;20027;-74
2021/04/09 04:31:02;;;;;;;4.93;0.90;;;;;;;4.21;90.54;99450.00;5083885;28;20786;-74
2021/04/09 04:33:27;;;;;;;5.40;1.30;;;;;;;4.19;90.34;99445.94;5083503;28;20039;-74
2021/04/09 04:35:52;;;;;;;8.50;1.27;;;;;;;4.15;90.65;99475.34;5090785;28;20024;-74
2021/04/09 04:38:18;;;;;;;6.55;1.05;;;;;;;4.12;89.93;99464.25;5088175;28;20028;-74
2021/04/09 04:40:45;;;;;;;5.32;1.30;;;;;;;4.13;90.58;99447.00;5082512;28;20547;-74
2021/04/09 04:43:11;;;;;;;6.75;1.48;;;;;;;4.16;90.08;99439.19;5068675;28;20028;-74
2021/04/09 04:45:36;;;;;;;14.27;1.70;;;;;;;4.22;90.72;99440.00;5067177;28;20044;-74
2021/04/09 04:48:02;;;;;;;8.77;1.77;;;;;;;4.28;90.18;99444.34;5088675;28;20028;-74
2021/04/09 04:50:27;;;;;;;8.93;1.77;;;;;;;4.31;90.77;99454.63;5084661;28;20020;-75
2021/04/09 04:52:52;;;;;;;9.50;1.85;;;;;;;4.34;90.34;99448.69;5090292;28;20043;-73
2021/04/09 04:55:18;;;;;;;7.53;1.67;;;;;;;4.37;90.45;99402.31;5088055;28;20623;-74
2021/04/09 04:57:43;;;;;;;10.85;1.88;;;;;;;4.40;90.50;99480.00;5088065;28;20028;-74
2021/04/09 05:00:09;;;;;;;16.70;1.67;;;;;;;4.46;90.26;99456.53;5082832;28;20465;-74
2021/04/09 05:02:36;;;;;;;15.18;2.50;;;;;;;4.51;90.50;99461.97;5081266;28;20135;-73
2021/04/09 05:05:02;;;;;;;11.35;1.83;;;;;;;4.57;90.58;99449.28;5089420;28;20381;-74
2021/04/09 05:07:27;;;;;;;9.57;2.13;;;;;;;4.62;90.51;99442.00;5086465;28;20059;-74
2021/04/09 05:09:53;;;;;;;14.65;2.65;;;;;;;4.68;90.19;99465.22;5081630;28;20059;-75
2021/04/09 05:12:18;;;;;;;12.07;3.85;;;;;;;4.74;90.08;99452.53;5069443;28;20032;-74
2021/04/09 05:14:43;;;;;;;18.98;2.97;;;;;;;4.81;90.28;99447.72;5087630;28;20389;-74
2021/04/09 05:17:09;;;;;;;25.02;3.08;;;;;;;4.87;89.99;99441.22;5089417;28;20040;-74
2021/04/09 05:19:34;;;;;;;14.38;3.08;;;;;;;4.94;90.04;99438.28;5088512;28;20028;-74
2021/04/09 05:21:59;;;;;;;16.52;3.22;;;;;;;4.98;89.72;99446.63;5084585;28;20389;-74
2021/04/09 05:24:25;;;;;;;14.63;2.75;;;;;;;5.02;89.62;99448.53;5081548;28;20028;-76
2021/04/09 05:26:50;;;;;;;19.25;3.70;;;;;;;5.07;89.57;99439.59;5081843;28;20032;-74
2021/04/09 05:29:16;;;;;;;13.77;3.00;;;;;;;5.11;89.60;99448.81;5091167;28;20019;-75
2021/04/09 05:31:41;;;;;;;18.42;2.63;;;;;;;5.15;89.53;99457.97;5085555;28;20116;-76
2021/04/09 05:34:06;;;;;;;24.63;3.35;;;;;;;5.20;89.14;99444.47;5085818;28;20499;-74
2021/04/09 05:36:32;;;;;;;19.15;3.25;;;;;;;5.25;89.08;99430.16;5088183;28;20031;-74
2021/04/09 05:38:57;;;;;;;16.02;5.85;;;;;;;5.31;88.79;99424.47;5085781;28;20020;-74
2021/04/09 05:41:23;;;;;;;19.45;3.22;;;;;;;5.39;88.43;99425.81;5084348;28;20046;-73
2021/04/09 05:43:48;;;;;;;19.73;4.13;;;;;;;5.46;87.99;99425.53;5084375;28;20427;-75
2021/04/09 05:46:14;;;;;;;13.73;3.45;;;;;;;5.53;87.58;99420.63;5083752;28;20048;-74
2021/04/09 05:48:40;;;;;;;19.85;3.53;;;;;;;5.56;87.08;99430.91;5063123;28;20107;-74
2021/04/09 05:51:05;;;;;;;16.58;4.25;;;;;;;5.59;86.49;99426.84;5066666;28;20046;-76
2021/04/09 05:53:30;;;;;;;19.23;5.05;;;;;;;5.61;85.96;99413.88;5066034;28;20388;-74
2021/04/09 05:55:56;;;;;;;25.88;4.30;;;;;;;5.62;85.51;99427.13;5084964;28;20020;-76
2021/04/09 05:58:21;;;;;;;22.88;3.50;;;;;;;5.66;85.37;99414.66;5077834;28;20043;-76
2021/04/09 06:00:47;;;;;;;18.15;4.78;;;;;;;5.67;85.18;99421.69;5083627;28;20031;-76
2021/04/09 06:03:12;;;;;;;16.08;3.60;;;;;;;5.67;84.98;99440.59;5082503;28;20051;-76
2021/04/09 06:05:38;;;;;;;32.10;5.18;;;;;;;5.63;84.73;99436.84;5067019;28;20046;-76
2021/04/09 06:08:06;;;;;;;23.77;4.05;;;;;;;5.59;84.52;99418.72;5077565;28;20032;-77
2021/04/09 06:10:31;;;;;;;24.95;4.88;;;;;;;5.55;84.41;99429.28;5079200;28;20561;-77
2021/04/09 06:12:58;;;;;;;22.10;5.32;;;;;;;5.54;83.71;99406.06;5080069;28;20020;-77
2021/04/09 06:15:24;;;;;;;32.95;4.85;;;;;;;5.56;82.82;99436.31;5086507;28;20077;-76
2021/04/09 06:17:50;;;;;;;26.45;4.75;;;;;;;5.59;81.90;99426.84;5083920;28;20032;-77
2021/04/09 06:20:15;;;;;;;26.80;4.57;;;;;;;5.59;82.04;99424.94;5086532;28;20196;-76
2021/04/09 06:22:42;;;;;;;19.00;3.42;;;;;;;5.62;81.88;99424.41;5080835;28;20039;-75
2021/04/09 06:25:08;;;;;;;30.60;3.92;;;;;;;5.68;81.81;99420.63;5084758;28;20067;-76
2021/04/09 06:27:33;;;;;;;22.80;4.22;;;;;;;5.72;81.49;99401.94;5080913;28;20024;-76
2021/04/09 06:29:59;;;;;;;16.52;3.55;;;;;;;5.79;81.32;99400.56;5075982;28;20058;-76
2021/04/09 06:32:24;;;;;;;16.55;4.47;;;;;;;5.86;81.58;99421.09;5084625;28;20113;-75
2021/04/09 06:34:50;;;;;;;18.08;3.83;;;;;;;5.89;80.55;99407.00;5081016;28;20104;-75
2021/04/09 06:37:15;;;;;;;18.58;3.80;;;;;;;5.94;80.19;99390.78;5083536;28;20032;-76
2021/04/09 06:39:41;;;;;;;31.27;5.57;;;;;;;6.00;79.62;99414.00;5086430;28;20042;-76
2021/04/09 06:42:07;;;;;;;19.83;4.78;;;;;;;6.04;79.25;99404.28;5080468;28;20124;-74
2021/04/09 06:44:32;;;;;;;13.45;4.25;;;;;;;6.06;78.87;99396.69;5081816;28;20024;-75
2021/04/09 06:46:58;;;;;;;17.23;3.40;;;;;;;6.09;78.06;99444.84;5082630;28;20040;-76
2021/04/09 06:49:25;;;;;;;25.92;4.70;;;;;;;6.13;77.72;99416.13;5086593;28;20060;-76
2021/04/09 06:51:50;;;;;;;16.00;4.07;;;;;;;6.17;77.24;99405.56;5074840;28;20017;-77
2021/04/09 06:54:16;;;;;;;25.20;4.20;;;;;;;6.21;76.59;99388.47;5080637;28;20233;-78
2021/04/09 06:56:43;;;;;;;21.40;4.20;;;;;;;6.25;75.37;99431.22;5078496;28;20107;-77
2021/04/09 06:59:11;;;;;;;18.98;3.17;;;;;;;6.33;75.02;99407.13;5079904;28;20035;-75
2021/04/09 07:01:37;;;;;;;15.68;3.72;;;;;;;6.38;74.29;99409.78;5076956;28;20100;-75
2021/04/09 07:04:02;;;;;;;18.02;3.28;;;;;;;6.39;74.08;99426.84;5083323;28;20123;-78
2021/04/09 07:06:29;;;;;;;21.42;5.05;;;;;;;6.40;74.47;99433.84;5080952;28;20031;-74
2021/04/09 07:08:55;;;;;;;21.73;5.78;;;;;;;6.38;74.97;99398.13;5082323;28;20036;-81
2021/04/09 07:11:20;;;;;;;24.80;5.53;;;;;;;6.35;75.03;99401.41;5079996;28;20035;-76
2021/04/09 07:13:50;;;;;;;21.83;4.30;;;;;;;6.30;75.34;99398.72;5060301;28;20025;-76
2021/04/09 07:16:15;;;;;;;21.38;4.88;;;;;;;6.25;75.35;99439.34;5083513;28;20020;-75
2021/04/09 07:18:54;;;;;;;17.95;3.97;;;;;;;6.16;75.90;99418.28;5086539;28;20039;-75
2021/04/09 07:21:27;;;;;;;16.85;4.55;;;;;;;6.13;75.98;99421.53;5067827;28;20020;-75
2021/04/09 07:24:14;;;;;;;17.08;4.38;;;;;;;6.13;76.09;99451.31;5088141;28;20478;-77
2021/04/09 07:26:47;;;;;;;28.15;5.47;;;;;;;6.19;76.32;99417.75;5088784;28;20024;-74
2021/04/09 07:29:30;;;;;;;26.25;4.20;;;;;;;6.23;76.02;99424.19;5088255;28;20485;-74
2021/04/09 07:31:59;;;;;;;28.02;5.57;;;;;;;6.33;75.43;99430.63;5084530;28;20563;-75
2021/04/09 07:34:25;;;;;;;24.52;5.70;;;;;;;6.36;75.07;99411.16;5102863;28;20025;-75
2021/04/09 07:36:54;;;;;;;21.63;4.05;;;;;;;6.40;74.61;99358.06;5088871;28;20099;-75
2021/04/09 07:39:35;;;;;;;19.40;3.70;;;;;;;6.38;73.62;99409.78;5082365;28;20028;-76
2021/04/09 07:42:10;;;;;;;13.05;2.13;;;;;;;6.33;73.76;99417.94;5085226;28;20032;-76
2021/04/09 07:44:39;;;;;;;18.90;4.57;;;;;;;6.32;73.70;99431.75;5073000;28;20032;-76
2021/04/09 07:47:15;;;;;;;19.23;3.72;;;;;;;6.27;73.66;99456.91;5086338;28;20028;-76
2021/04/09 07:49:40;;;;;;;15.38;3.45;;;;;;;6.27;73.26;99431.75;5089700;28;20031;-76
2021/04/09 07:52:11;;;;;;;12.48;3.63;;;;;;;6.19;73.65;99466.44;5088713;28;20029;-76
2021/04/09 07:54:37;;;;;;;17.50;3.55;;;;;;;6.11;73.15;99456.19;5083695;28;20549;-75
2021/04/09 07:57:03;;;;;;;17.30;3.83;;;;;;;6.11;73.42;99447.25;5086928;28;20024;-75
2021/04/09 07:59:38;;;;;;;18.80;3.63;;;;;;;6.19;74.06;99449.38;5066957;28;20496;-75
2021/04/09 08:02:04;;;;;;;18.67;3.15;;;;;;;6.20;73.31;99456.44;5088413;28;20103;-75
2021/04/09 08:04:39;;;;;;;16.98;5.05;;;;;;;6.15;72.95;99497.84;5090052;28;20020;-76
2021/04/09 08:07:05;;;;;;;15.00;2.88;;;;;;;6.21;73.18;99453.44;5100055;28;20021;-76
2021/04/09 08:09:49;;;;;;;21.38;3.40;;;;;;;6.15;72.92;99480.81;5078891;28;20307;-76
2021/04/09 08:12:28;;;;;;;20.10;3.28;;;;;;;6.13;73.47;99482.97;5083953;28;20370;-76
2021/04/09 08:14:54;;;;;;;16.58;3.28;;;;;;;6.21;74.09;99448.03;5083502;28;20047;-77
2021/04/09 08:17:20;;;;;;;22.95;3.45;;;;;;;6.34;73.98;99459.34;5084780;28;20533;-76
2021/04/09 08:19:52;;;;;;;13.82;2.80;;;;;;;6.32;73.24;99448.78;5085497;28;20032;-78
2021/04/09 08:22:17;;;;;;;29.08;4.20;;;;;;;6.31;73.46;99505.91;5081594;28;20031;-76
2021/04/09 08:24:43;;;;;;;23.88;3.88;;;;;;;6.31;72.71;99449.06;5082172;28;20353;-76
2021/04/09 08:27:08;;;;;;;26.90;5.15;;;;;;;6.36;72.96;99459.88;5079704;28;20376;-76
2021/04/09 08:29:33;;;;;;;33.60;5.88;;;;;;;6.41;73.17;99466.06;5063331;28;20027;-76
2021/04/09 08:32:02;;;;;;;19.42;5.38;;;;;;;6.46;73.21;99459.81;5080437;28;20035;-76
2021/04/09 08:34:29;;;;;;;37.80;5.72;;;;;;;6.51;73.15;99450.84;5084825;28;20042;-76
2021/04/09 08:36:54;;;;;;;14.93;3.03;;;;;;;6.57;72.94;99482.22;5085125;28;20103;-74
2021/04/09 08:39:20;;;;;;;19.00;4.03;;;;;;;6.60;72.30;99455.41;5064808;28;20315;-76
2021/04/09 08:41:48;;;;;;;18.95;4.18;;;;;;;6.62;72.92;99469.47;5083940;28;20035;-76
2021/04/09 08:44:14;;;;;;;11.82;3.55;;;;;;;6.69;72.65;99449.41;5076140;28;21433;-77
2021/04/09 08:46:40;;;;;;;23.13;4.82;;;;;;;6.73;72.27;99491.06;5058559;28;20028;-76
2021/04/09 08:49:05;;;;;;;18.05;4.07;;;;;;;6.79;72.35;99487.22;5071854;28;20032;-76
2021/04/09 08:51:32;;;;;;;12.05;2.67;;;;;;;6.84;71.80;99487.22;5076210;28;20114;-77
2021/04/09 08:54:16;;;;;;;16.08;4.13;;;;;;;6.86;71.87;99493.97;5063172;28;20038;-74
2021/04/09 08:56:42;;;;;;;23.35;4.28;;;;;;;6.89;71.41;99476.34;5083276;28;20024;-77
2021/04/09 08:59:07;;;;;;;16.05;2.65;;;;;;;6.96;71.30;99484.97;5079078;28;20024;-77
2021/04/09 09:01:32;;;;;;;24.08;5.80;;;;;;;7.01;71.47;99512.03;5080751;28;20036;-78
2021/04/09 09:04:23;;;;;;;22.90;4.22;;;;;;;6.98;71.18;99490.91;5067132;28;20043;-73
2021/04/09 09:06:51;;;;;;;16.05;3.47;;;;;;;7.04;71.05;99475.44;5082822;28;20050;-73
2021/04/09 09:09:27;;;;;;;21.50;5.95;;;;;;;7.03;70.39;99501.69;5052279;28;20026;-74
2021/04/09 09:12:02;;;;;;;24.58;4.35;;;;;;;7.01;70.07;99490.34;5065326;28;20090;-74
2021/04/09 09:14:33;;;;;;;24.50;5.28;;;;;;;7.07;71.00;99494.66;5079442;28;20131;-75
2021/04/09 09:17:20;;;;;;;24.45;5.72;;;;;;;7.21;71.82;99523.81;5077306;28;20028;-75
2021/04/09 09:19:49;;;;;;;21.92;3.80;;;;;;;7.14;69.88;99488.09;5078840;28;20031;-72
2021/04/09 09:22:15;;;;;;;16.98;4.05;;;;;;;7.12;69.02;99488.38;5076281;28;20042;-79
2021/04/09 09:25:03;;;;;;;20.65;5.10;;;;;;;7.13;69.00;99559.66;5076573;28;20106;-80
2021/04/09 09:27:48;;;;;;;26.75;4.53;;;;;;;7.14;68.98;99517.91;5082709;28;20033;-78
2021/04/09 09:30:42;;;;;;;14.40;3.90;;;;;;;7.11;68.30;99511.94;5094652;28;20031;-78
2021/04/09 09:33:24;;;;;;;37.85;5.97;;;;;;;7.10;68.27;99502.19;5073717;28;20478;-79
2021/04/09 09:36:09;;;;;;;16.63;5.20;;;;;;;7.11;67.87;99509.22;5079695;28;20024;-78
2021/04/09 09:38:46;;;;;;;21.45;3.70;;;;;;;7.16;68.13;99523.84;5083689;28;20020;-78
2021/04/09 09:41:32;;;;;;;22.77;4.03;;;;;;;7.16;67.93;99526.56;5077738;28;20035;-79
2021/04/09 09:43:59;;;;;;;27.33;4.85;;;;;;;7.23;68.88;99543.28;5075165;28;20025;-76
2021/04/09 09:46:53;;;;;;;21.10;4.82;;;;;;;7.23;68.31;99546.00;5068894;28;20044;-75
2021/04/09 09:49:20;;;;;;;28.85;5.43;;;;;;;7.22;66.91;99560.66;5076445;28;20048;-76
2021/04/09 09:51:45;;;;;;;22.05;4.30;;;;;;;7.25;67.01;99547.34;5077472;28;20013;-78
2021/04/09 09:54:20;;;;;;;24.75;5.22;;;;;;;7.28;66.56;99567.66;5081858;28;20025;-76
2021/04/09 09:56:45;;;;;;;14.25;4.32;;;;;;;7.28;66.50;99537.84;5064036;28;20053;-77
2021/04/09 09:59:15;;;;;;;30.00;4.70;;;;;;;7.30;66.70;99517.50;5069644;28;20039;-79
2021/04/09 10:01:41;;;;;;;18.85;4.45;;;;;;;7.34;65.86;99590.97;5052484;28;20032;-78
2021/04/09 10:04:11;;;;;;;22.70;3.67;;;;;;;7.35;66.17;99565.44;5067393;28;20745;-77
2021/04/09 10:06:37;;;;;;;24.75;3.65;;;;;;;7.37;66.08;99562.47;5069828;28;20024;-76
2021/04/09 10:09:02;;;;;;;29.08;5.57;;;;;;;7.42;66.95;99560.53;5084556;28;20051;-76
2021/04/09 10:11:28;;;;;;;29.90;7.00;;;;;;;7.46;66.63;99542.59;5084980;28;20024;-85
2021/04/09 10:13:55;;;;;;;30.23;5.63;;;;;;;7.42;66.36;99565.13;5067270;28;20024;-78
2021/04/09 10:16:22;;;;;;;23.52;6.15;;;;;;;7.47;66.59;99584.88;5082526;28;20027;-81
2021/04/09 10:18:55;;;;;;;14.77;3.00;;;;;;;7.52;66.23;99551.50;5080889;28;20047;-82
2021/04/09 10:21:25;;;;;;;16.23;3.45;;;;;;;7.53;65.70;99580.25;5086644;28;20557;-83
2021/04/09 10:24:04;;;;;;;33.08;6.80;;;;;;;7.52;66.05;99584.84;5068310;28;20036;-76
2021/04/09 10:26:29;;;;;;;24.73;7.00;;;;;;;7.55;65.46;99589.69;5085172;28;20031;-77
2021/04/09 10:28:55;;;;;;;29.75;5.90;;;;;;;7.60;65.37;99577.19;5086809;28;20065;-78
2021/04/09 10:31:23;;;;;;;26.38;5.32;;;;;;;7.60;65.37;99578.00;5086339;28;20020;-78
2021/04/09 10:33:50;;;;;;;20.05;4.75;;;;;;;7.65;65.67;99574.44;5069151;28;20016;-78
2021/04/09 10:36:36;;;;;;;14.05;3.10;;;;;;;7.66;65.24;99576.06;5085389;28;20080;-79
2021/04/09 10:39:10;;;;;;;27.55;6.43;;;;;;;7.67;65.46;99585.84;5086247;28;20112;-79
2021/04/09 10:41:37;;;;;;;22.67;4.72;;;;;;;7.67;65.15;99621.91;5068436;28;20024;-78
2021/04/09 10:44:07;;;;;;;28.73;5.43;;;;;;;7.74;65.51;99635.13;5089260;28;20036;-80
2021/04/09 10:46:36;;;;;;;20.55;4.95;;;;;;;7.75;65.26;99609.63;5082317;28;20044;-80
2021/04/09 10:49:05;;;;;;;21.95;4.15;;;;;;;7.71;64.69;99597.72;5084522;28;20028;-78
2021/04/09 10:51:35;;;;;;;16.00;2.75;;;;;;;7.73;64.22;99666.06;5081398;28;20020;-78
2021/04/09 10:54:01;;;;;;;17.17;3.58;;;;;;;7.73;64.68;99599.06;5086217;28;20031;-79
2021/04/09 10:56:26;;;;;;;25.15;5.03;;;;;;;7.76;64.95;99612.06;5085346;28;20058;-78
2021/04/09 10:58:51;;;;;;;17.95;2.80;;;;;;;7.82;64.53;99618.25;5084470;28;20071;-79
2021/04/09 11:01:17;;;;;;;22.92;4.85;;;;;;;7.88;64.65;99619.81;5085532;28;20028;-78
2021/04/09 11:03:42;;;;;;;16.42;3.20;;;;;;;7.91;64.07;99665.41;5069651;28;20023;-78
2021/04/09 11:06:09;;;;;;;16.42;3.70;;;;;;;7.95;64.09;99614.88;5057202;28;20036;-79
2021/04/09 11:08:39;;;;;;;22.38;4.05;;;;;;;7.97;64.07;99637.13;5081127;28;20035;-79
2021/04/09 11:11:10;;;;;;;17.40;3.70;;;;;;;7.98;63.71;99638.72;5076992;28;20020;-78
2021/04/09 11:13:39;;;;;;;26.17;5.38;;;;;;;7.96;63.69;99659.91;5080115;28;20452;-80
2021/04/09 11:16:06;;;;;;;25.40;4.10;;;;;;;7.99;64.01;99621.38;5065762;28;20058;-79
2021/04/09 11:18:53;;;;;;;32.90;5.68;;;;;;;8.03;64.09;99626.22;5082940;28;20013;-79
2021/04/09 11:21:48;;;;;;;20.52;4.93;;;;;;;8.12;64.21;99629.94;5083361;28;20028;-80
2021/04/09 11:24:28;;;;;;;30.58;5.47;;;;;;;8.17;64.34;99617.09;5083681;28;20038;-80
2021/04/09 11:26:53;;;;;;;27.33;5.43;;;;;;;8.33;64.06;99660.41;5082272;28;20462;-80
2021/04/09 11:29:26;;;;;;;14.95;3.80;;;;;;;8.31;62.64;99647.13;5081714;28;20032;-80
2021/04/09 11:32:14;;;;;;;23.42;5.22;;;;;;;8.26;61.69;99658.00;5072891;28;20024;-79
2021/04/09 11:34:41;;;;;;;17.83;3.60;;;;;;;8.29;62.06;99656.63;5080287;28;20060;-79
2021/04/09 11:37:07;;;;;;;26.38;4.57;;;;;;;8.32;62.00;99662.31;5061552;28;20036;-79
2021/04/09 11:39:32;;;;;;;18.17;4.10;;;;;;;8.42;62.22;99673.09;5081384;28;20477;-79